Time;durP1;ratioP1;P1;durP2;ratioP2;P2;SDS_P1;SDS_P2;PMS_P1;PMS_P2;Temp;Humidity;BMP_temperature;BMP_pressure;BME280_temperature;BME280_humidity;BME280_pressure;Samples;Min_cycle;Max_cycle;Signal;HPM_P1;HPM_P2
2022/02/06 00:02:04;;;;;;;7.25;3.40;;;;;;;8.63;54.11;99218.08;1786652;79;20871;-54
2022/02/06 00:04:31;;;;;;;5.10;2.98;;;;;;;8.72;54.67;99220.31;1788124;79;21381;-54
2022/02/06 00:06:57;;;;;;;6.92;3.22;;;;;;;8.73;54.77;99225.09;1800056;79;21466;-58
2022/02/06 00:09:24;;;;;;;8.43;3.45;;;;;;;8.66;54.27;99227.56;1794609;79;21455;-54
2022/02/06 00:11:50;;;;;;;5.42;3.37;;;;;;;8.70;54.57;99230.45;1790631;79;22334;-54
2022/02/06 00:14:18;;;;;;;5.85;3.30;;;;;;;8.80;54.70;99227.86;1779727;79;20887;-55
2022/02/06 00:16:44;;;;;;;7.53;3.67;;;;;;;8.68;54.00;99224.42;1782886;79;21423;-54
2022/02/06 00:19:11;;;;;;;7.40;3.15;;;;;;;8.72;54.67;99226.88;1779723;79;21522;-55
2022/02/06 00:21:37;;;;;;;5.37;3.30;;;;;;;8.40;53.18;99216.37;1775988;79;20913;-54
2022/02/06 00:24:07;;;;;;;6.22;3.12;;;;;;;8.57;53.63;99221.80;1794784;79;22561;-54
2022/02/06 00:26:42;;;;;;;6.85;3.75;;;;;;;8.53;53.26;99220.23;1788808;79;20914;-55
2022/02/06 00:31:52;;;;;;;5.95;3.25;;;;;;;8.44;53.00;99221.04;1787594;79;21496;-54
2022/02/06 00:39:16;;;;;;;7.72;2.92;;;;;;;8.61;54.25;99213.80;1791468;79;21125;-55
2022/02/06 00:41:43;;;;;;;5.65;3.37;;;;;;;8.57;54.56;99207.86;1798899;79;21508;-54
2022/02/06 00:44:10;;;;;;;5.70;3.23;;;;;;;8.45;54.05;99210.50;1790471;79;21443;-54
2022/02/06 00:46:37;;;;;;;4.67;2.75;;;;;;;8.51;54.65;99214.64;1788894;79;21496;-54
2022/02/06 00:49:12;;;;;;;;;;;;;;;8.52;54.35;99208.50;1791254;79;21492;-54
2022/02/06 00:51:48;;;;;;;6.67;3.20;;;;;;;8.42;53.49;99204.09;1773686;79;20820;-54
2022/02/06 00:54:04;;;;;;;5.58;3.22;;;;;;;8.37;53.93;99202.08;1790746;79;21463;-55
2022/02/06 00:56:30;;;;;;;5.08;3.10;;;;;;;8.40;54.14;99208.52;1788299;79;21414;-54
2022/02/06 00:58:57;;;;;;;7.12;3.20;;;;;;;8.40;53.50;99211.14;1781431;79;21463;-54
2022/02/06 01:01:23;;;;;;;5.72;3.20;;;;;;;8.49;54.46;99209.92;1777940;79;22358;-55
2022/02/06 01:03:50;;;;;;;4.95;3.20;;;;;;;8.53;54.14;99216.73;1785666;79;20855;-54
2022/02/06 01:06:18;;;;;;;5.47;3.27;;;;;;;8.58;54.38;99203.00;1781528;78;21023;-54
2022/02/06 01:08:44;;;;;;;7.50;3.08;;;;;;;8.49;53.44;99208.14;1772204;79;21518;-53
2022/02/06 01:11:13;;;;;;;7.67;3.72;;;;;;;8.45;54.43;99206.57;1771323;79;21375;-55
2022/02/06 01:16:24;;;;;;;6.20;3.17;;;;;;;8.49;54.45;99200.28;1767987;79;21604;-55
2022/02/06 01:18:55;;;;;;;5.28;3.00;;;;;;;8.34;54.29;99196.95;1762229;79;21495;-54
2022/02/06 01:21:42;;;;;;;6.05;3.58;;;;;;;8.42;54.34;99195.36;1767291;79;21903;-55
2022/02/06 01:24:12;;;;;;;7.85;3.52;;;;;;;8.30;54.40;99199.31;1777508;79;21394;-55
2022/02/06 01:26:41;;;;;;;4.80;3.37;;;;;;;8.35;54.70;99193.44;1778651;79;22374;-54
2022/02/06 01:29:12;;;;;;;4.78;3.58;;;;;;;8.45;54.13;99196.56;1775421;79;21503;-54
2022/02/06 01:34:12;;;;;;;4.65;3.37;;;;;;;8.41;54.58;99197.11;1790371;79;21420;-54
2022/02/06 01:36:46;;;;;;;5.55;3.40;;;;;;;8.46;54.09;99204.83;1780024;79;21509;-53
2022/02/06 01:39:36;;;;;;;6.78;3.72;;;;;;;8.20;53.88;99197.53;1779672;78;21378;-54
2022/02/06 01:41:41;;;;;;;6.37;3.67;;;;;;;8.42;54.74;99196.23;1768402;79;21442;-55
2022/02/06 01:44:11;;;;;;;6.10;3.58;;;;;;;8.43;53.99;99195.77;1780326;79;21536;-56
2022/02/06 02:03:14;;;;;;;6.78;3.50;;;;;;;8.40;54.54;99203.28;1788652;79;21503;-56
2022/02/06 02:16:37;;;;;;;6.75;3.52;;;;;;;8.51;54.28;99211.58;1789176;78;21021;-54
2022/02/06 02:30:11;;;;;;;9.83;3.90;;;;;;;8.60;54.71;99222.59;1786343;78;21498;-55
2022/02/06 02:43:05;;;;;;;6.87;3.50;;;;;;;8.71;54.56;99224.30;1786480;78;20882;-54
2022/02/06 02:45:37;;;;;;;6.55;3.42;;;;;;;8.80;54.82;99230.91;1791505;79;22332;-54
2022/02/06 02:47:52;;;;;;;8.33;3.77;;;;;;;8.71;54.35;99233.48;1785603;79;21346;-54
2022/02/06 02:50:24;;;;;;;6.83;3.80;;;;;;;8.73;54.93;99232.95;1784892;79;21423;-54
2022/02/06 02:53:05;;;;;;;6.08;3.65;;;;;;;8.66;54.39;99222.33;1798666;79;21466;-54
2022/02/06 02:58:04;;;;;;;8.33;3.62;;;;;;;8.81;54.84;99228.70;1791348;79;22614;-54
2022/02/06 03:00:32;;;;;;;7.28;4.12;;;;;;;8.84;54.33;99229.89;1771307;79;21560;-54
2022/02/06 03:02:58;;;;;;;5.95;3.30;;;;;;;8.77;54.45;99228.81;1771529;79;21478;-54
2022/02/06 03:05:20;;;;;;;8.85;4.03;;;;;;;8.81;54.84;99230.85;1778302;79;21421;-54
2022/02/06 03:07:48;;;;;;;7.58;4.15;;;;;;;8.81;54.28;99226.92;1788424;79;21495;-53
2022/02/06 03:10:14;;;;;;;5.67;3.60;;;;;;;8.80;54.55;99229.59;1774109;79;22334;-54
2022/02/06 03:12:47;;;;;;;7.22;3.98;;;;;;;8.76;54.83;99224.98;1784596;79;21403;-54
2022/02/06 03:15:21;;;;;;;6.22;3.45;;;;;;;8.76;54.43;99221.05;1786545;79;21458;-54
2022/02/06 03:17:45;;;;;;;6.58;3.92;;;;;;;8.81;54.64;99221.67;1778948;79;21485;-54
2022/02/06 03:20:11;;;;;;;4.25;3.85;;;;;;;8.60;53.72;99233.92;1782920;79;20923;-56
2022/02/06 03:22:50;;;;;;;8.93;4.25;;;;;;;8.76;54.32;99226.28;1785458;79;22961;-55
2022/02/06 03:25:16;;;;;;;6.70;3.85;;;;;;;8.82;55.06;99228.64;1777606;78;21392;-54
2022/02/06 03:27:35;;;;;;;7.45;4.10;;;;;;;8.74;55.31;99224.19;1785419;78;21537;-55
2022/02/06 03:30:02;;;;;;;4.00;3.58;;;;;;;8.71;55.01;99221.69;1771322;79;20882;-54
2022/02/06 03:32:30;;;;;;;6.12;4.28;;;;;;;8.70;54.91;99222.59;1784517;79;20906;-54
2022/02/06 03:34:56;;;;;;;6.60;4.15;;;;;;;8.74;55.31;99220.26;1789914;79;21594;-54
2022/02/06 03:37:22;;;;;;;6.08;3.55;;;;;;;8.71;55.03;99218.59;1776311;78;21478;-54
2022/02/06 03:39:52;;;;;;;6.30;3.83;;;;;;;8.65;55.36;99224.11;1767007;79;21481;-54
2022/02/06 03:42:17;;;;;;;5.60;3.90;;;;;;;8.58;55.12;99216.94;1783759;79;21496;-55
2022/02/06 03:44:49;;;;;;;5.80;3.83;;;;;;;8.61;55.31;99220.34;1787963;79;21507;-55
2022/02/06 03:47:22;;;;;;;7.90;4.00;;;;;;;8.54;54.63;99223.23;1774331;79;22324;-54
2022/02/06 03:49:52;;;;;;;5.10;4.05;;;;;;;8.42;54.99;99218.51;1775977;79;21388;-55
2022/02/06 03:52:11;;;;;;;6.53;4.03;;;;;;;8.45;54.76;99222.76;1782058;79;21511;-53
2022/02/06 03:54:37;;;;;;;4.95;3.70;;;;;;;8.47;54.91;99222.23;1779694;78;21506;-55
2022/02/06 03:57:04;;;;;;;6.30;4.45;;;;;;;8.43;55.22;99222.81;1790388;78;21403;-54
2022/02/06 03:59:31;;;;;;;5.45;4.22;;;;;;;8.52;55.66;99226.38;1780276;79;22305;-55
2022/02/06 04:01:58;;;;;;;7.30;4.12;;;;;;;8.57;55.21;99224.42;1784479;79;21458;-54
2022/02/06 04:04:24;;;;;;;7.03;4.53;;;;;;;8.53;55.09;99231.15;1788015;79;21494;-54
2022/02/06 04:06:51;;;;;;;7.90;4.22;;;;;;;8.57;54.93;99235.38;1801785;79;21494;-54
2022/02/06 04:09:29;;;;;;;5.53;4.20;;;;;;;8.67;54.99;99239.30;1785203;79;21386;-54
2022/02/06 04:11:50;;;;;;;7.40;4.00;;;;;;;8.66;54.69;99234.97;1779877;79;22274;-54
2022/02/06 04:14:25;;;;;;;8.00;4.17;;;;;;;8.71;55.50;99242.19;1795692;79;21508;-55
2022/02/06 04:16:51;;;;;;;7.87;3.90;;;;;;;8.75;55.29;99240.30;1799325;79;20913;-54
2022/02/06 04:19:26;;;;;;;6.37;4.50;;;;;;;8.79;55.17;99241.86;1785130;79;21477;-54
2022/02/06 04:21:53;;;;;;;7.08;4.22;;;;;;;8.77;55.50;99246.32;1792471;79;21375;-53
2022/02/06 04:24:19;;;;;;;6.90;4.08;;;;;;;8.77;55.72;99239.77;1792194;79;22643;-54
2022/02/06 04:26:48;;;;;;;4.83;3.65;;;;;;;8.82;55.06;99236.97;1792981;79;21455;-53
2022/02/06 04:29:16;;;;;;;5.90;4.08;;;;;;;8.60;54.78;99233.07;1781794;79;21541;-54
2022/02/06 04:31:43;;;;;;;7.80;3.92;;;;;;;8.72;55.65;99239.09;1777738;79;21371;-54
2022/02/06 04:34:10;;;;;;;7.42;4.30;;;;;;;8.70;55.46;99235.69;1791886;79;21423;-54
2022/02/06 04:36:47;;;;;;;6.87;4.15;;;;;;;8.63;54.79;99240.35;1790667;79;21719;-54
2022/02/06 04:39:33;;;;;;;7.30;4.28;;;;;;;8.72;55.27;99233.42;1786277;78;21518;-54
2022/02/06 04:41:58;;;;;;;8.30;4.00;;;;;;;8.53;54.69;99236.39;1784420;78;21403;-52
2022/02/06 04:44:42;;;;;;;6.80;4.35;;;;;;;8.58;55.40;99235.28;1775116;79;21466;-54
2022/02/06 04:52:31;;;;;;;6.75;4.15;;;;;;;8.63;54.91;99227.72;1789783;79;21383;-54
2022/02/06 05:16:51;;;;;;;7.92;4.50;;;;;;;8.71;54.89;99247.89;1766531;79;22314;-54
2022/02/06 05:22:11;;;;;;;6.00;4.08;;;;;;;8.79;54.99;99247.11;1783136;79;21525;-53
2022/02/06 05:26:57;;;;;;;7.75;4.40;;;;;;;8.81;55.36;99271.48;1773348;79;21520;-54
2022/02/06 05:34:16;;;;;;;6.00;4.17;;;;;;;8.77;54.88;99273.84;1788783;79;21465;-54
2022/02/06 05:36:42;;;;;;;6.28;4.20;;;;;;;8.81;55.00;99281.12;1778764;79;21490;-54
2022/02/06 05:39:09;;;;;;;8.35;4.17;;;;;;;8.88;54.82;99279.97;1770503;79;21628;-54
2022/02/06 05:41:35;;;;;;;6.65;4.45;;;;;;;8.77;54.49;99283.86;1780189;79;22610;-54
2022/02/06 05:44:03;;;;;;;5.78;4.22;;;;;;;8.86;54.81;99285.27;1778903;79;21398;-54
2022/02/06 05:46:29;;;;;;;7.80;4.33;;;;;;;8.80;54.54;99284.22;1796155;78;21419;-54
2022/02/06 05:48:56;;;;;;;7.10;4.40;;;;;;;8.81;54.48;99299.02;1778333;79;21505;-54
2022/02/06 05:51:22;;;;;;;6.17;4.20;;;;;;;8.83;54.93;99295.87;1774676;79;21373;-54
2022/02/06 05:53:49;;;;;;;7.12;4.62;;;;;;;8.61;55.01;99298.53;1776046;79;22534;-53
2022/02/06 05:56:18;;;;;;;6.35;4.35;;;;;;;8.32;55.62;99298.33;1773177;79;21503;-54
2022/02/06 05:58:44;;;;;;;6.28;4.75;;;;;;;8.30;56.14;99303.62;1781768;79;21522;-54
2022/02/06 06:01:11;;;;;;;7.12;4.40;;;;;;;8.36;55.72;99299.47;1783064;78;21594;-54
2022/02/06 06:03:37;;;;;;;9.00;4.95;;;;;;;8.42;56.40;99288.37;1795528;78;21513;-54
2022/02/06 06:06:03;;;;;;;7.00;4.47;;;;;;;8.50;56.12;99295.02;1787802;79;22313;-54
2022/02/06 06:08:30;;;;;;;5.50;4.42;;;;;;;8.37;55.75;99291.15;1791112;79;21415;-54
2022/02/06 06:10:56;;;;;;;7.10;5.03;;;;;;;8.37;55.31;99297.70;1792066;78;21407;-55
2022/02/06 06:13:23;;;;;;;6.53;4.87;;;;;;;8.27;55.68;99287.17;1788083;79;21454;-54
2022/02/06 06:15:49;;;;;;;8.43;4.60;;;;;;;8.38;55.44;99290.22;1786766;79;21342;-53
2022/02/06 06:18:16;;;;;;;7.05;4.72;;;;;;;8.42;55.48;99295.80;1784272;78;22397;-55
2022/02/06 06:20:45;;;;;;;13.20;6.15;;;;;;;8.36;55.27;99290.73;1793392;78;21548;-53
2022/02/06 06:23:12;;;;;;;13.05;6.17;;;;;;;8.35;55.65;99290.36;1784679;78;21435;-54
2022/02/06 06:25:40;;;;;;;8.08;5.35;;;;;;;8.44;55.76;99287.41;1794732;78;21517;-55
2022/02/06 06:28:07;;;;;;;12.53;5.53;;;;;;;8.30;54.96;99280.05;1793589;78;20941;-54
2022/02/06 06:30:37;;;;;;;9.15;4.97;;;;;;;8.34;55.60;99288.20;1793399;78;22293;-56
2022/02/06 06:33:05;;;;;;;7.33;5.05;;;;;;;8.37;55.09;99289.84;1793710;78;20875;-53
2022/02/06 06:35:31;;;;;;;7.95;5.45;;;;;;;8.10;55.29;99285.20;1793335;78;21459;-52
2022/02/06 06:37:59;;;;;;;11.22;5.35;;;;;;;8.16;55.39;99274.05;1792287;78;21518;-54
2022/02/06 06:40:27;;;;;;;9.23;4.78;;;;;;;8.41;55.56;99285.34;1792696;78;21468;-54
2022/02/06 06:42:54;;;;;;;;;;;;;;;8.35;55.91;99285.13;1796380;78;22317;-54
2022/02/06 06:45:20;;;;;;;8.05;5.03;;;;;;;7.94;55.24;99282.33;1795156;78;20764;-52
2022/02/06 06:47:55;;;;;;;10.15;5.65;;;;;;;8.45;55.47;99290.88;1789047;78;21565;-54
2022/02/06 06:50:25;;;;;;;9.48;6.25;;;;;;;8.46;55.71;99289.98;1789114;78;21355;-54
2022/02/06 06:52:51;;;;;;;6.70;5.03;;;;;;;8.54;55.42;99288.73;1790185;78;21457;-54
2022/02/06 06:55:21;;;;;;;8.35;5.67;;;;;;;8.47;55.05;99298.22;1785861;78;21512;-54
2022/02/06 06:57:56;;;;;;;10.10;5.28;;;;;;;8.63;54.73;99302.41;1787795;78;21500;-54
2022/02/06 07:02:50;;;;;;;8.03;4.42;;;;;;;8.62;54.42;99308.08;1770759;78;21564;-53
2022/02/06 07:05:17;;;;;;;9.53;4.80;;;;;;;8.84;55.04;99294.13;1774438;79;21474;-54
2022/02/06 07:07:44;;;;;;;10.00;5.45;;;;;;;8.77;54.27;99289.58;1793511;78;22292;-56
2022/02/06 07:10:10;;;;;;;6.15;4.78;;;;;;;8.57;54.04;99290.41;1792031;78;21430;-53
2022/02/06 07:12:36;;;;;;;6.85;4.42;;;;;;;8.74;54.01;99295.80;1798418;78;21466;-52
2022/02/06 07:15:03;;;;;;;8.00;4.95;;;;;;;8.73;54.11;99296.70;1781587;77;21349;-54
2022/02/06 07:17:30;;;;;;;8.90;5.40;;;;;;;8.86;54.74;99296.22;1777005;78;21441;-53
2022/02/06 07:19:56;;;;;;;10.15;5.60;;;;;;;8.86;54.37;99290.51;1772148;78;22386;-54
2022/02/06 07:22:24;;;;;;;7.78;5.20;;;;;;;8.93;54.52;99295.05;1721406;81;21543;-54
2022/02/06 07:24:53;;;;;;;9.60;5.33;;;;;;;8.87;53.93;99293.98;1780026;78;21574;-54
2022/02/06 07:29:51;;;;;;;20.82;10.30;;;;;;;8.93;53.30;99292.43;1779985;78;21545;-54
2022/02/06 07:32:17;;;;;;;50.75;22.20;;;;;;;8.94;53.77;99294.97;1785050;78;22319;-54
2022/02/06 07:34:44;;;;;;;19.45;8.90;;;;;;;9.10;53.91;99287.33;1774645;78;21514;-52
2022/02/06 07:37:11;;;;;;;10.78;6.58;;;;;;;8.75;52.77;99292.72;1776120;78;21469;-54
2022/02/06 07:39:37;;;;;;;7.47;5.03;;;;;;;9.03;54.05;99287.65;1778672;78;21467;-54
2022/02/06 07:42:04;;;;;;;8.68;5.20;;;;;;;9.04;53.66;99286.28;1778850;78;20948;-54
2022/02/06 07:44:34;;;;;;;7.58;4.10;;;;;;;9.13;53.71;99296.82;1767971;79;22277;-57
2022/02/06 07:47:11;;;;;;;9.60;5.47;;;;;;;9.12;52.90;99297.76;1779944;79;21462;-53
2022/02/06 07:49:29;;;;;;;9.35;5.62;;;;;;;9.07;52.78;99288.75;1772623;79;21403;-54
2022/02/06 07:51:56;;;;;;;12.55;7.72;;;;;;;9.16;53.05;99287.52;1782107;79;21566;-54
2022/02/06 07:54:22;;;;;;;9.43;4.83;;;;;;;9.29;53.47;99293.95;1777165;79;21564;-53
2022/02/06 07:56:48;;;;;;;8.70;4.65;;;;;;;9.16;52.50;99287.05;1790142;78;22336;-53
2022/02/06 07:59:16;;;;;;;7.35;5.12;;;;;;;9.14;52.80;99294.61;1775675;79;21545;-55
2022/02/06 08:01:43;;;;;;;9.53;6.00;;;;;;;9.22;52.92;99300.84;1787005;79;21347;-54
2022/02/06 08:04:09;;;;;;;12.68;5.87;;;;;;;9.00;52.42;99294.32;1789184;78;21423;-52
2022/02/06 08:06:37;;;;;;;9.20;5.10;;;;;;;9.06;52.81;99292.75;1777751;79;21577;-54
2022/02/06 08:09:04;;;;;;;11.33;7.62;;;;;;;9.13;52.22;99295.04;1778586;79;22594;-55
2022/02/06 08:14:07;;;;;;;9.45;5.35;;;;;;;7.82;58.55;99299.36;1781603;78;22861;-55
2022/02/06 08:16:34;;;;;;;10.03;5.50;;;;;;;9.57;52.54;99288.81;1766998;80;21577;-55
2022/02/06 08:19:01;;;;;;;8.18;5.50;;;;;;;9.49;50.77;99294.41;1760867;80;22291;-54
2022/02/06 08:21:27;;;;;;;8.08;4.80;;;;;;;9.71;51.98;99286.41;1755276;80;21502;-54
2022/02/06 08:23:54;;;;;;;7.95;4.72;;;;;;;9.68;51.56;99282.63;1775739;80;21430;-56
2022/02/06 08:26:21;;;;;;;7.78;4.45;;;;;;;9.81;51.02;99285.52;1770167;80;21530;-53
2022/02/06 08:28:48;;;;;;;7.12;4.53;;;;;;;9.83;51.58;99286.34;1762152;80;21542;-55
2022/02/06 08:31:15;;;;;;;7.05;5.08;;;;;;;9.92;50.81;99280.64;1763318;80;22388;-54
2022/02/06 08:33:42;;;;;;;9.13;4.72;;;;;;;9.66;50.15;99279.66;1766744;80;21468;-55
2022/02/06 08:36:08;;;;;;;8.35;5.47;;;;;;;9.81;50.83;99293.40;1762479;80;21534;-56
2022/02/06 08:38:35;;;;;;;8.60;5.37;;;;;;;9.94;50.96;99291.08;1755668;80;22593;-55
2022/02/06 08:41:01;;;;;;;8.05;5.12;;;;;;;10.07;50.54;99291.37;1775356;80;21431;-54
2022/02/06 08:43:28;;;;;;;8.55;5.58;;;;;;;9.89;49.72;99297.02;1766024;80;22712;-55
2022/02/06 08:45:54;;;;;;;9.28;5.55;;;;;;;10.06;50.42;99293.16;1753075;79;21574;-56
2022/02/06 08:48:21;;;;;;;10.85;5.97;;;;;;;10.08;50.68;99289.98;1775426;80;21484;-55
2022/02/06 08:50:48;;;;;;;11.07;5.53;;;;;;;10.09;49.92;99297.40;1753504;80;21556;-55
2022/02/06 08:53:14;;;;;;;8.70;5.15;;;;;;;10.24;50.61;99290.11;1776348;80;21504;-56
2022/02/06 08:55:47;;;;;;;7.08;4.87;;;;;;;10.16;49.84;99292.73;1766711;80;22352;-56
2022/02/06 08:58:09;;;;;;;7.60;4.60;;;;;;;10.10;48.90;99289.45;1772054;80;21070;-56
2022/02/06 09:00:36;;;;;;;10.45;5.00;;;;;;;10.13;48.66;99291.08;1758673;80;21494;-56
2022/02/06 09:03:02;;;;;;;6.05;4.25;;;;;;;10.24;49.77;99284.86;1761443;80;21510;-56
2022/02/06 09:05:30;;;;;;;6.28;4.10;;;;;;;10.20;48.90;99287.72;1749048;80;21631;-55
2022/02/06 09:07:56;;;;;;;5.67;4.03;;;;;;;10.30;48.64;99281.09;1757962;80;22625;-55
2022/02/06 09:10:23;;;;;;;6.60;4.20;;;;;;;10.18;48.69;99281.69;1771133;79;21565;-56
2022/02/06 09:12:53;;;;;;;5.47;4.00;;;;;;;10.36;48.97;99278.66;1754122;80;21542;-54
2022/02/06 09:15:18;;;;;;;8.25;4.50;;;;;;;10.14;48.33;99269.15;1753928;80;21478;-56
2022/02/06 09:17:44;;;;;;;6.90;4.50;;;;;;;10.32;49.02;99268.32;1735331;80;21476;-54
2022/02/06 09:20:12;;;;;;;9.13;5.33;;;;;;;10.47;48.04;99265.42;1748912;80;22328;-56
2022/02/06 09:22:40;;;;;;;5.97;4.65;;;;;;;10.47;48.04;99265.42;1747220;80;21167;-56
2022/02/06 09:25:07;;;;;;;7.67;4.42;;;;;;;10.69;48.16;99275.72;1746860;80;21382;-56
2022/02/06 09:27:35;;;;;;;7.60;4.37;;;;;;;10.63;47.83;99264.66;1713530;82;21556;-56
2022/02/06 09:30:06;;;;;;;7.15;4.42;;;;;;;10.50;47.40;99257.84;1742310;80;21615;-55
2022/02/06 09:37:29;;;;;;;10.20;5.22;;;;;;;10.50;47.87;99250.80;1749970;80;21427;-56
2022/02/06 09:39:56;;;;;;;8.43;4.50;;;;;;;10.57;47.65;99241.28;1746602;80;21368;-56
2022/02/06 09:42:23;;;;;;;7.75;3.95;;;;;;;10.80;48.22;99246.27;1739488;80;21458;-57
2022/02/06 09:44:49;;;;;;;5.15;3.58;;;;;;;10.70;46.72;99239.78;1757255;80;22327;-56
2022/02/06 09:47:27;;;;;;;5.87;4.08;;;;;;;10.71;46.65;99244.94;1751171;80;21053;-56
2022/02/06 09:49:54;;;;;;;8.18;4.45;;;;;;;10.77;46.74;99236.36;1746377;80;20867;-57
2022/02/06 09:52:25;;;;;;;8.30;4.42;;;;;;;10.77;47.12;99238.99;1740542;80;21404;-54
2022/02/06 09:54:55;;;;;;;7.03;4.00;;;;;;;10.82;47.21;99237.84;1748587;80;21474;-54
2022/02/06 09:57:27;;;;;;;5.20;3.92;;;;;;;10.91;46.93;99244.42;1758252;80;22260;-55
2022/02/06 09:59:53;;;;;;;7.60;4.25;;;;;;;10.93;46.14;99248.30;1756391;80;21423;-54
2022/02/06 10:02:27;;;;;;;6.45;4.47;;;;;;;10.74;46.54;99233.88;1752844;80;21491;-55
2022/02/06 10:04:54;;;;;;;6.37;3.70;;;;;;;11.04;47.61;99236.77;1742184;80;21508;-55
2022/02/06 10:07:42;;;;;;;7.92;4.40;;;;;;;11.20;47.35;99231.55;1749121;80;21507;-55
2022/02/06 10:10:09;;;;;;;5.97;4.17;;;;;;;11.18;45.53;99231.63;1713644;82;22930;-56
2022/02/06 10:12:37;;;;;;;7.97;3.87;;;;;;;11.18;46.35;99220.25;1748953;80;21709;-55
2022/02/06 10:15:05;;;;;;;7.30;4.22;;;;;;;11.27;46.48;99214.05;1746276;80;21412;-56
2022/02/06 10:17:34;;;;;;;7.03;4.00;;;;;;;11.20;45.39;99201.28;1736819;80;21383;-57
2022/02/06 10:20:01;;;;;;;8.23;4.17;;;;;;;11.45;44.21;99204.34;1721296;82;21566;-56
2022/02/06 10:22:39;;;;;;;;;;;;;;;11.84;45.06;99207.03;1744759;80;22571;-55
2022/02/06 10:25:03;;;;;;;7.72;3.90;;;;;;;12.41;43.80;99215.77;1738069;80;20968;-56
2022/02/06 10:27:53;;;;;;;5.53;4.35;;;;;;;12.78;43.53;99211.46;1742269;80;21497;-56
2022/02/06 10:30:40;;;;;;;6.92;3.42;;;;;;;13.25;42.91;99207.30;1742408;80;21509;-56
2022/02/06 10:33:21;;;;;;;8.40;4.72;;;;;;;13.62;42.12;99199.79;1740558;80;21684;-55
2022/02/06 10:35:50;;;;;;;7.33;4.12;;;;;;;13.74;41.70;99198.16;1678099;82;22247;-55
2022/02/06 10:38:24;;;;;;;6.40;3.87;;;;;;;13.65;40.45;99189.48;1741486;80;21496;-55
2022/02/06 10:41:18;;;;;;;9.20;4.53;;;;;;;13.61;41.25;99190.16;1746661;80;21529;-55
2022/02/06 10:44:02;;;;;;;8.45;4.00;;;;;;;13.36;41.11;99176.80;1749358;80;21513;-53
2022/02/06 10:46:30;;;;;;;5.78;3.65;;;;;;;13.24;41.96;99181.85;1752031;80;21430;-55
2022/02/06 10:48:59;;;;;;;8.80;3.62;;;;;;;13.14;43.00;99178.06;1745094;80;22329;-55
2022/02/06 10:51:43;;;;;;;6.00;3.47;;;;;;;12.75;41.69;99179.97;1746569;80;20981;-55
2022/02/06 10:54:22;;;;;;;8.75;3.75;;;;;;;13.03;43.30;99185.78;1749951;80;21142;-54
2022/02/06 10:57:12;;;;;;;6.97;3.58;;;;;;;13.13;42.77;99180.34;1752219;80;20922;-56
2022/02/06 10:59:48;;;;;;;10.88;3.95;;;;;;;13.46;47.38;99171.78;1750136;80;21051;-53
2022/02/06 11:02:19;;;;;;;11.00;3.87;;;;;;;13.59;43.19;99178.00;1748376;80;22668;-54
2022/02/06 11:05:16;;;;;;;8.48;3.72;;;;;;;13.89;42.67;99173.89;1747988;80;21488;-55
2022/02/06 11:07:38;;;;;;;6.30;3.35;;;;;;;14.10;44.45;99173.45;1749175;80;21572;-56
2022/02/06 11:10:06;;;;;;;9.08;3.52;;;;;;;13.85;44.12;99174.19;1715314;82;21436;-55
2022/02/06 11:12:33;;;;;;;7.67;3.90;;;;;;;13.52;41.58;99172.23;1749589;80;21020;-54
2022/02/06 11:15:02;;;;;;;13.10;4.28;;;;;;;13.60;43.95;99179.23;1756722;80;21455;-54
2022/02/06 11:17:32;;;;;;;7.53;3.98;;;;;;;13.24;42.32;99184.49;1760493;80;21509;-55
2022/02/06 11:20:02;;;;;;;8.53;4.15;;;;;;;12.85;41.33;99172.75;1759745;80;21411;-53
2022/02/06 11:22:29;;;;;;;10.98;3.72;;;;;;;12.71;43.03;99174.51;1762246;80;21644;-54
2022/02/06 11:24:56;;;;;;;9.40;4.12;;;;;;;12.08;41.92;99174.56;1747854;80;21413;-54
2022/02/06 11:27:22;;;;;;;8.00;4.90;;;;;;;12.07;43.21;99174.64;1756573;80;22364;-55
2022/02/06 11:29:49;;;;;;;10.65;4.75;;;;;;;12.10;43.43;99164.42;1768284;80;21396;-56
2022/02/06 11:32:15;;;;;;;8.95;4.00;;;;;;;12.24;44.02;99165.78;1757506;80;21504;-55
2022/02/06 11:34:43;;;;;;;8.30;4.10;;;;;;;12.13;50.95;99166.86;1750709;80;21471;-55
2022/02/06 11:46:11;;;;;;;11.30;5.10;;;;;;;12.05;44.24;99158.07;1725927;82;21474;-54
2022/02/06 11:48:38;;;;;;;8.60;5.12;;;;;;;12.04;43.66;99154.59;1731011;81;21479;-54
2022/02/06 11:51:04;;;;;;;7.75;4.40;;;;;;;12.16;43.71;99145.61;1734477;81;20996;-54
2022/02/06 11:53:38;;;;;;;9.95;5.53;;;;;;;12.36;43.91;99141.36;1735024;81;21503;-54
2022/02/06 11:56:01;;;;;;;9.73;5.20;;;;;;;12.51;43.32;99136.11;1731973;82;21557;-54
2022/02/06 11:58:34;;;;;;;12.90;5.75;;;;;;;12.71;43.95;99139.73;1727600;80;21964;-53
2022/02/06 12:01:08;;;;;;;8.83;4.90;;;;;;;12.75;42.67;99133.81;1727145;80;21512;-51
2022/02/06 12:03:53;;;;;;;8.40;4.97;;;;;;;12.81;43.97;99137.42;1733412;82;20898;-53
2022/02/06 12:06:20;;;;;;;10.08;5.00;;;;;;;12.85;42.89;99131.86;1729343;81;22399;-53
2022/02/06 12:09:02;;;;;;;8.83;6.22;;;;;;;12.95;43.18;99136.58;1740885;82;21470;-53
2022/02/06 12:11:30;;;;;;;10.70;5.72;;;;;;;12.85;43.50;99129.22;1738574;80;21441;-53
2022/02/06 12:14:16;;;;;;;12.03;5.85;;;;;;;12.95;43.42;99122.91;1731276;81;21435;-53
2022/02/06 12:16:51;;;;;;;11.50;5.50;;;;;;;12.80;42.12;99128.64;1707559;80;21570;-55
2022/02/06 12:19:27;;;;;;;10.43;5.50;;;;;;;12.68;42.48;99128.07;1725161;80;21669;-54
2022/02/06 12:21:55;;;;;;;8.05;5.40;;;;;;;12.66;42.87;99129.95;1734913;80;21021;-52
2022/02/06 12:24:43;;;;;;;8.80;5.22;;;;;;;12.47;42.17;99127.56;1738493;81;21479;-53
2022/02/06 12:27:26;;;;;;;7.17;4.78;;;;;;;12.33;42.65;99135.41;1733458;81;21574;-53
2022/02/06 12:29:58;;;;;;;10.35;5.58;;;;;;;11.95;43.09;99134.03;1733786;82;21046;-53
2022/02/06 12:32:32;;;;;;;11.22;5.62;;;;;;;12.03;43.79;99130.48;1733892;81;22293;-53
2022/02/06 12:37:45;;;;;;;7.80;5.42;;;;;;;11.92;44.23;99120.19;1733571;81;21495;-53
2022/02/06 12:40:15;;;;;;;7.92;5.15;;;;;;;11.80;44.80;99121.23;1737219;81;21451;-53
2022/02/06 12:42:44;;;;;;;9.95;4.75;;;;;;;11.71;44.44;99122.22;1736808;81;21614;-53
2022/02/06 12:45:15;;;;;;;9.43;4.62;;;;;;;11.44;44.08;99117.06;1725177;81;21785;-55
2022/02/06 12:47:43;;;;;;;6.53;4.58;;;;;;;11.65;44.94;99120.30;1734298;82;20965;-55
2022/02/06 12:50:22;;;;;;;8.00;4.17;;;;;;;11.58;44.43;99113.66;1729663;81;21064;-54
2022/02/06 12:52:49;;;;;;;10.10;4.97;;;;;;;11.57;45.29;99119.05;1739564;81;21440;-54
2022/02/06 12:55:15;;;;;;;8.25;4.83;;;;;;;11.30;44.26;99114.33;1734512;81;21614;-54
2022/02/06 12:57:48;;;;;;;9.80;5.30;;;;;;;11.47;44.56;99116.04;1734840;81;22375;-53
2022/02/06 13:00:37;;;;;;;7.87;4.78;;;;;;;11.41;45.17;99127.75;1733924;81;21970;-53
2022/02/06 13:03:31;;;;;;;;;;;;;;;11.44;44.81;99122.81;1731813;82;21425;-54
2022/02/06 13:05:56;;;;;;;9.65;4.62;;;;;;;11.33;44.39;99119.91;1727087;81;21287;-53
2022/02/06 13:08:23;;;;;;;9.23;4.87;;;;;;;11.47;44.59;99116.91;1733814;81;21573;-54
2022/02/06 13:11:04;;;;;;;9.40;5.42;;;;;;;11.43;45.43;99107.48;1724330;81;22305;-53
2022/02/06 13:13:34;;;;;;;7.00;5.05;;;;;;;11.50;45.27;99113.25;1738619;81;21489;-53
2022/02/06 13:16:05;;;;;;;7.95;4.80;;;;;;;11.59;45.59;99103.53;1729962;82;21081;-54
2022/02/06 13:21:28;;;;;;;7.97;4.30;;;;;;;11.49;44.81;99100.56;1736474;82;21508;-53
2022/02/06 13:24:06;;;;;;;6.20;4.70;;;;;;;11.47;44.94;99104.19;1735384;81;22344;-54
2022/02/06 13:26:33;;;;;;;10.75;4.67;;;;;;;11.44;45.47;99106.53;1731367;81;21529;-53
2022/02/06 13:28:59;;;;;;;13.25;4.92;;;;;;;11.42;45.62;99111.52;1733501;81;21064;-54
2022/02/06 13:31:39;;;;;;;7.60;5.08;;;;;;;11.30;45.05;99103.36;1734552;81;21168;-54
2022/02/06 13:38:55;;;;;;;11.12;5.37;;;;;;;11.21;44.74;99100.38;1724798;82;21055;-54
2022/02/06 13:41:19;;;;;;;6.80;4.80;;;;;;;11.28;45.16;99097.77;1726142;81;21460;-55
2022/02/06 13:43:48;;;;;;;12.15;4.95;;;;;;;11.20;45.16;99096.03;1730533;81;21352;-54
2022/02/06 13:46:16;;;;;;;8.85;4.92;;;;;;;11.45;45.18;99091.14;1733572;81;21697;-55
2022/02/06 13:48:47;;;;;;;8.00;4.70;;;;;;;11.44;45.13;99090.74;1727931;80;22338;-55
2022/02/06 13:51:14;;;;;;;9.93;4.80;;;;;;;11.46;45.43;99088.03;1730317;81;21509;-55
2022/02/06 13:53:54;;;;;;;6.50;4.17;;;;;;;11.19;43.99;99091.24;1733722;82;21502;-55
2022/02/06 13:56:21;;;;;;;9.23;5.25;;;;;;;11.32;45.46;99087.93;1718198;81;21476;-54
2022/02/06 13:59:05;;;;;;;8.30;5.08;;;;;;;11.23;45.25;99089.30;1736188;81;21418;-55
2022/02/06 14:01:43;;;;;;;8.50;5.17;;;;;;;11.09;45.18;99085.64;1734221;82;22745;-54
2022/02/06 14:04:32;;;;;;;8.08;4.70;;;;;;;10.95;44.56;99088.61;1734131;82;21485;-55